Time;durP1;ratioP1;P1;durP2;ratioP2;P2;SDS_P1;SDS_P2;PMS_P1;PMS_P2;Temp;Humidity;BMP_temperature;BMP_pressure;BME280_temperature;BME280_humidity;BME280_pressure;Samples;Min_cycle;Max_cycle;Signal;HPM_P1;HPM_P2
2021/06/08 00:01:06;;;;;;;1.23;1.13;;;;;;;20.02;71.41;99323.34;5083246;28;41922;-82
2021/06/08 00:03:33;;;;;;;1.37;1.27;;;;;;;19.99;71.92;99330.84;5081966;28;39893;-82
2021/06/08 00:06:01;;;;;;;1.73;1.63;;;;;;;19.93;71.57;99316.13;5050621;28;41843;-81
2021/06/08 00:08:28;;;;;;;1.40;1.30;;;;;;;19.97;71.53;99327.44;5049437;28;41734;-81
2021/06/08 00:10:57;;;;;;;1.43;1.33;;;;;;;19.87;71.74;99305.09;5083052;28;41914;-81
2021/06/08 00:13:24;;;;;;;1.97;1.80;;;;;;;19.83;71.99;99301.00;5083437;28;39202;-81
2021/06/08 00:15:51;;;;;;;3.50;3.20;;;;;;;19.93;71.63;99321.50;5066231;28;40657;-81
2021/06/08 00:18:18;;;;;;;1.40;1.33;;;;;;;19.92;71.75;99318.94;5082631;28;42749;-81
2021/06/08 00:20:46;;;;;;;1.30;1.20;;;;;;;19.89;71.85;99319.25;5082960;28;41981;-81
2021/06/08 00:23:13;;;;;;;2.93;2.70;;;;;;;19.88;71.84;99314.88;5082753;28;41476;-81
2021/06/08 00:25:40;;;;;;;1.00;1.00;;;;;;;19.88;71.71;99315.72;5051342;28;42343;-81
2021/06/08 00:28:09;;;;;;;1.50;1.33;;;;;;;19.85;71.89;99317.81;5049343;28;42794;-81
2021/06/08 00:30:36;;;;;;;1.80;1.70;;;;;;;19.87;71.89;99321.22;5058779;28;41823;-80
2021/06/08 00:33:04;;;;;;;1.93;1.83;;;;;;;19.81;72.10;99316.41;5070695;28;39940;-81
2021/06/08 00:35:32;;;;;;;0.90;0.90;;;;;;;19.85;71.66;99325.91;5053544;28;41574;-81
2021/06/08 00:37:59;;;;;;;1.27;1.20;;;;;;;19.85;71.48;99317.81;5065931;28;41787;-81
2021/06/08 00:40:27;;;;;;;1.87;1.77;;;;;;;19.84;71.99;99327.72;5048737;28;41965;-81
2021/06/08 00:42:55;;;;;;;0.90;0.90;;;;;;;19.75;71.88;99308.94;5066224;28;38877;-82
2021/06/08 00:45:24;;;;;;;2.37;1.80;;;;;;;19.85;71.54;99325.91;5035937;28;40813;-82
2021/06/08 00:47:52;;;;;;;1.40;1.30;;;;;;;19.85;71.71;99323.22;5053332;28;41949;-81
2021/06/08 00:50:19;;;;;;;1.63;1.53;;;;;;;19.86;71.47;99330.28;5070293;28;42574;-81
2021/06/08 00:52:51;;;;;;;1.97;1.37;;;;;;;19.85;71.81;99324.06;5069150;28;40524;-81
2021/06/08 00:55:18;;;;;;;1.37;1.27;;;;;;;19.51;71.99;99275.28;5051619;28;40814;-82
2021/06/08 00:57:46;;;;;;;1.33;1.23;;;;;;;19.80;71.86;99320.94;5070576;28;43490;-81
2021/06/08 01:00:13;;;;;;;2.17;1.97;;;;;;;19.80;71.94;99325.47;5051915;28;41411;-81
2021/06/08 01:02:42;;;;;;;2.63;1.57;;;;;;;19.79;71.66;99321.94;5086682;28;38941;-81
2021/06/08 01:05:11;;;;;;;1.60;1.50;;;;;;;19.77;71.77;99315.03;5070082;28;41589;-81
2021/06/08 01:07:38;;;;;;;2.20;2.03;;;;;;;19.69;71.97;99305.81;5086288;28;43035;-81
2021/06/08 01:10:09;;;;;;;1.10;1.10;;;;;;;19.78;72.09;99319.41;5052893;28;42390;-82
2021/06/08 01:12:37;;;;;;;1.00;1.00;;;;;;;19.78;72.09;99311.34;5087069;28;38894;-81
2021/06/08 01:15:06;;;;;;;3.13;2.20;;;;;;;19.67;71.97;99299.72;5095855;28;41721;-81
2021/06/08 01:17:33;;;;;;;1.60;1.43;;;;;;;19.75;71.81;99314.31;5066057;28;41733;-81
2021/06/08 01:20:04;;;;;;;0.90;0.90;;;;;;;19.72;71.95;99310.91;5048749;28;41011;-81
2021/06/08 01:22:33;;;;;;;1.87;1.77;;;;;;;19.75;71.92;99306.25;5049308;28;40449;-81
2021/06/08 01:25:00;;;;;;;1.97;1.87;;;;;;;19.73;72.36;99304.56;5098089;28;40730;-82
2021/06/08 01:27:28;;;;;;;3.50;2.77;;;;;;;19.60;72.07;99293.25;5086706;28;41660;-81
2021/06/08 01:29:57;;;;;;;4.33;1.80;;;;;;;19.72;72.10;99307.38;5052537;28;42054;-81
2021/06/08 01:32:27;;;;;;;1.57;1.47;;;;;;;19.72;72.11;99308.22;5068383;28;39978;-80
2021/06/08 01:34:56;;;;;;;1.67;1.57;;;;;;;19.71;71.88;99306.53;5051187;28;40426;-81
2021/06/08 01:37:24;;;;;;;2.57;2.37;;;;;;;19.70;71.96;99298.59;5067251;28;42691;-81
2021/06/08 01:39:53;;;;;;;1.17;1.07;;;;;;;19.63;71.99;99292.97;5070465;28;41950;-81
2021/06/08 01:42:21;;;;;;;1.23;1.13;;;;;;;19.64;71.77;99299.19;5085267;28;38997;-81
2021/06/08 01:44:48;;;;;;;1.10;1.10;;;;;;;19.59;71.81;99288.84;5052114;28;40503;-81
2021/06/08 01:47:15;;;;;;;1.00;1.00;;;;;;;19.62;71.86;99293.09;5052287;28;41510;-81
2021/06/08 01:49:43;;;;;;;1.47;1.37;;;;;;;19.66;71.77;99308.78;5048343;28;42328;-81
2021/06/08 01:52:18;;;;;;;1.50;1.40;;;;;;;19.68;72.04;99304.13;5068661;28;39099;-81
2021/06/08 01:54:51;;;;;;;1.33;1.33;;;;;;;19.51;71.97;99277.97;5088842;28;41742;-81
2021/06/08 01:57:27;;;;;;;1.33;1.13;;;;;;;19.66;72.13;99298.03;5105458;28;42126;-81
2021/06/08 02:00:01;;;;;;;2.37;2.17;;;;;;;19.66;71.99;99298.03;5071371;28;41041;-81
2021/06/08 02:02:35;;;;;;;1.07;0.97;;;;;;;19.61;71.76;99288.72;5088513;28;40271;-81
2021/06/08 02:05:09;;;;;;;1.60;1.50;;;;;;;19.68;71.83;99305.94;5071610;28;41676;-81
2021/06/08 02:07:44;;;;;;;0.90;0.90;;;;;;;19.66;71.79;99303.41;5105727;28;41854;-81
2021/06/08 02:10:31;;;;;;;1.67;1.60;;;;;;;19.65;71.70;99307.09;5070563;28;42015;-81
2021/06/08 02:13:10;;;;;;;1.20;1.20;;;;;;;19.64;71.82;99304.56;5051305;28;38978;-81
2021/06/08 02:15:41;;;;;;;1.37;1.27;;;;;;;19.62;71.49;99307.38;5068523;28;42394;-81
2021/06/08 02:18:11;;;;;;;1.57;1.47;;;;;;;19.58;71.88;99305.97;5066979;28;42490;-81
2021/06/08 02:20:39;;;;;;;1.70;1.60;;;;;;;19.60;71.71;99309.38;5068278;28;42170;-82
2021/06/08 02:23:11;;;;;;;1.20;1.20;;;;;;;19.61;71.77;99310.22;5069327;28;40014;-81
2021/06/08 02:25:40;;;;;;;1.57;1.47;;;;;;;19.55;71.37;99295.50;5051504;28;40664;-81
2021/06/08 02:28:12;;;;;;;1.53;1.43;;;;;;;19.43;71.38;99275.09;5050543;28;42065;-81
2021/06/08 02:30:43;;;;;;;2.53;2.33;;;;;;;19.51;71.35;99288.72;5069536;28;43003;-81
2021/06/08 02:33:11;;;;;;;2.23;2.07;;;;;;;19.58;71.64;99307.81;5068282;28;39641;-81
2021/06/08 02:35:39;;;;;;;1.40;1.30;;;;;;;19.55;71.46;99306.25;5067807;28;40498;-82
2021/06/08 02:38:07;;;;;;;1.50;1.40;;;;;;;19.49;71.94;99301.44;5068934;28;43177;-82
2021/06/08 02:40:34;;;;;;;1.40;1.30;;;;;;;19.54;71.57;99314.44;5069464;28;42224;-80
2021/06/08 02:43:02;;;;;;;0.87;0.87;;;;;;;19.52;71.59;99317.28;5063694;28;39889;-81
2021/06/08 02:45:32;;;;;;;1.83;1.73;;;;;;;19.43;71.89;99301.97;5047919;28;41428;-81
2021/06/08 02:48:00;;;;;;;1.97;1.53;;;;;;;19.35;71.75;99294.63;5048134;28;44459;-81
2021/06/08 02:50:29;;;;;;;1.37;0.93;;;;;;;19.48;71.90;99318.53;5051697;28;42326;-81
2021/06/08 02:52:58;;;;;;;1.43;1.33;;;;;;;19.47;71.66;99316.81;5064999;28;39637;-81
2021/06/08 02:55:27;;;;;;;1.93;1.83;;;;;;;19.48;72.01;99321.22;5054057;28;40585;-81
2021/06/08 02:57:57;;;;;;;1.23;1.17;;;;;;;19.47;71.79;99324.88;5054096;28;43067;-81
2021/06/08 03:00:26;;;;;;;2.93;2.73;;;;;;;19.46;71.85;99328.56;5053349;28;42260;-81
2021/06/08 03:02:57;;;;;;;1.30;1.20;;;;;;;19.46;71.72;99323.19;5070536;28;38955;-80
2021/06/08 03:05:27;;;;;;;1.63;1.53;;;;;;;19.41;71.75;99314.69;5070188;28;41596;-82
2021/06/08 03:07:59;;;;;;;1.53;1.43;;;;;;;19.48;71.72;99329.25;5103911;28;41998;-82
2021/06/08 03:10:31;;;;;;;1.33;1.23;;;;;;;19.48;71.48;99331.94;5105495;28;41133;-81
2021/06/08 03:13:01;;;;;;;1.63;1.53;;;;;;;19.46;71.79;99328.56;5070720;28;40558;-81
2021/06/08 03:15:31;;;;;;;2.33;1.30;;;;;;;19.44;71.64;99335.91;5104865;27;41626;-81
2021/06/08 03:18:01;;;;;;;3.07;1.60;;;;;;;19.48;71.54;99342.69;5053709;28;41903;-81
2021/06/08 03:20:35;;;;;;;1.53;1.43;;;;;;;19.48;71.62;99336.47;5087767;28;42273;-81
2021/06/08 03:23:07;;;;;;;1.10;0.97;;;;;;;19.40;71.50;99326.44;5069593;28;39148;-81
2021/06/08 03:25:35;;;;;;;1.30;1.20;;;;;;;19.47;71.43;99332.09;5070748;28;41769;-80
2021/06/08 03:28:04;;;;;;;2.17;2.07;;;;;;;19.49;71.44;99338.22;5071785;28;42752;-81
2021/06/08 03:30:33;;;;;;;1.60;1.50;;;;;;;19.43;71.38;99323.44;5071396;28;42128;-81
2021/06/08 03:33:02;;;;;;;1.20;0.90;;;;;;;19.50;71.61;99340.75;5087839;28;39127;-83
2021/06/08 03:35:30;;;;;;;1.37;1.30;;;;;;;19.43;71.60;99336.88;5069998;28;41489;-81
2021/06/08 03:37:58;;;;;;;1.17;1.00;;;;;;;19.50;71.36;99351.50;5087612;28;41673;-81
2021/06/08 03:40:26;;;;;;;1.10;1.10;;;;;;;19.51;71.49;99350.53;5079105;28;41950;-80
2021/06/08 03:42:54;;;;;;;1.70;1.60;;;;;;;19.41;71.46;99338.03;5086373;28;40190;-81
2021/06/08 03:45:22;;;;;;;2.47;2.27;;;;;;;19.39;71.35;99332.81;5072574;28;41620;-80
2021/06/08 03:47:50;;;;;;;1.33;1.33;;;;;;;19.45;71.81;99342.97;5073137;28;41859;-81
2021/06/08 03:50:18;;;;;;;0.93;0.93;;;;;;;19.45;71.76;99347.50;5090748;28;42706;-81
2021/06/08 03:52:50;;;;;;;1.33;1.23;;;;;;;19.47;71.51;99357.13;5124650;27;41535;-80
2021/06/08 03:55:19;;;;;;;1.20;1.20;;;;;;;19.45;71.86;99353.72;5124859;28;40856;-81
2021/06/08 03:57:50;;;;;;;1.43;1.33;;;;;;;19.47;71.67;99358.94;5082589;28;43138;-81
2021/06/08 04:00:19;;;;;;;2.00;1.90;;;;;;;19.41;71.92;99352.28;5053871;28;42312;-81
2021/06/08 04:02:47;;;;;;;1.43;1.33;;;;;;;19.48;71.46;99363.34;5069630;28;40718;-81
2021/06/08 04:05:15;;;;;;;0.63;0.63;;;;;;;19.46;71.50;99358.09;5069315;28;41699;-81
2021/06/08 04:07:46;;;;;;;1.13;1.13;;;;;;;19.45;72.13;99359.09;5070040;28;42719;-81
2021/06/08 04:10:16;;;;;;;1.10;1.10;;;;;;;19.45;71.78;99359.09;5070286;28;42102;-81
2021/06/08 04:12:44;;;;;;;0.83;0.83;;;;;;;19.43;71.70;99353.00;5068710;28;39966;-81
2021/06/08 04:15:12;;;;;;;1.50;1.50;;;;;;;19.50;71.80;99361.41;5066964;28;42580;-81
2021/06/08 04:17:40;;;;;;;1.60;1.50;;;;;;;19.52;71.31;99362.97;5051991;28;42525;-82
2021/06/08 04:20:09;;;;;;;2.37;1.57;;;;;;;19.53;71.68;99364.66;5052925;28;41292;-82
2021/06/08 04:22:39;;;;;;;1.07;1.07;;;;;;;19.51;71.68;99358.56;5070380;28;40348;-81
2021/06/08 04:25:08;;;;;;;0.87;0.87;;;;;;;19.54;71.60;99360.97;5070188;28;41813;-82
2021/06/08 04:27:36;;;;;;;1.50;1.37;;;;;;;19.48;71.34;99355.28;5070086;28;41948;-81
2021/06/08 04:30:05;;;;;;;1.97;1.50;;;;;;;19.54;71.53;99366.34;5070273;28;42236;-81
2021/06/08 04:32:33;;;;;;;1.97;1.73;;;;;;;19.55;71.30;99359.97;5104027;28;38914;-81
2021/06/08 04:35:01;;;;;;;1.93;1.80;;;;;;;19.58;71.16;99358.84;5069695;28;42446;-83
2021/06/08 04:37:28;;;;;;;1.40;1.00;;;;;;;19.60;71.29;99363.09;5071065;28;42975;-81
2021/06/08 04:39:55;;;;;;;1.70;1.60;;;;;;;19.62;71.18;99366.50;5066747;28;41455;-81
2021/06/08 04:42:24;;;;;;;1.83;1.60;;;;;;;19.64;71.40;99369.91;5050295;28;39910;-81
2021/06/08 04:44:52;;;;;;;1.50;1.40;;;;;;;19.68;70.92;99365.06;5050223;28;41717;-81
2021/06/08 04:47:21;;;;;;;2.10;1.90;;;;;;;19.72;71.03;99366.50;5067496;28;43459;-81
2021/06/08 04:49:48;;;;;;;1.67;1.67;;;;;;;19.71;71.07;99373.72;5085724;28;41281;-81
2021/06/08 04:52:15;;;;;;;1.10;0.93;;;;;;;19.72;70.94;99367.34;5052489;28;38916;-81
2021/06/08 04:54:43;;;;;;;1.83;1.73;;;;;;;19.72;70.71;99361.97;5069181;28;40726;-81
2021/06/08 04:57:11;;;;;;;1.60;1.50;;;;;;;19.76;71.03;99367.94;5069041;28;42566;-81
2021/06/08 04:59:49;;;;;;;1.63;1.53;;;;;;;19.79;70.78;99366.75;5068642;28;43012;-81
2021/06/08 05:02:23;;;;;;;1.67;1.57;;;;;;;19.75;70.84;99360.00;5086557;28;41697;-81
2021/06/08 05:04:52;;;;;;;1.50;1.43;;;;;;;19.84;70.93;99369.88;5085137;28;40662;-81
2021/06/08 05:07:21;;;;;;;1.03;0.93;;;;;;;19.87;70.75;99366.94;5066914;28;42136;-81
2021/06/08 05:09:52;;;;;;;1.53;1.43;;;;;;;19.83;70.66;99352.91;5066846;28;42946;-81
2021/06/08 05:12:23;;;;;;;1.20;1.13;;;;;;;19.96;70.28;99369.59;5065659;28;39815;-81
2021/06/08 05:14:54;;;;;;;1.67;1.53;;;;;;;19.93;70.42;99355.59;5050774;28;40892;-81
2021/06/08 05:17:24;;;;;;;1.57;1.47;;;;;;;20.07;70.10;99366.75;5065678;28;43259;-80
2021/06/08 05:19:54;;;;;;;2.63;2.47;;;;;;;20.11;70.52;99378.09;5049600;28;41254;-81
2021/06/08 05:22:22;;;;;;;2.93;2.70;;;;;;;20.16;70.03;99375.78;5051929;28;40089;-81
2021/06/08 05:24:51;;;;;;;1.50;1.40;;;;;;;20.23;69.99;99374.25;5068416;28;41530;-81
2021/06/08 05:27:19;;;;;;;2.73;2.53;;;;;;;20.22;69.71;99364.47;5070299;28;42736;-81
2021/06/08 05:29:47;;;;;;;1.37;1.27;;;;;;;20.35;69.89;99370.44;5085905;28;41031;-82
2021/06/08 05:32:16;;;;;;;1.00;1.00;;;;;;;20.39;69.33;99382.59;5051344;28;38621;-81
2021/06/08 05:34:44;;;;;;;1.60;1.43;;;;;;;20.43;69.26;99373.22;5086035;28;41706;-81
2021/06/08 05:37:15;;;;;;;1.30;1.30;;;;;;;20.50;69.32;99372.66;5085302;28;42822;-79
2021/06/08 05:39:44;;;;;;;1.93;1.43;;;;;;;20.61;69.30;99380.56;5069653;28;41866;-82
2021/06/08 05:42:15;;;;;;;1.30;1.20;;;;;;;20.68;68.95;99377.13;5067717;28;39805;-82
2021/06/08 05:44:43;;;;;;;2.00;1.90;;;;;;;20.74;68.26;99381.94;5067554;28;42568;-79
2021/06/08 05:47:10;;;;;;;1.30;1.20;;;;;;;20.76;68.44;99379.94;5085851;28;42090;-82
2021/06/08 05:49:40;;;;;;;1.63;1.57;;;;;;;20.82;68.24;99383.88;5070349;28;42955;-81
2021/06/08 05:52:11;;;;;;;1.17;1.13;;;;;;;20.84;68.10;99381.88;5051080;28;38710;-81
2021/06/08 05:54:38;;;;;;;1.73;1.63;;;;;;;20.96;68.20;99385.22;5067477;28;41730;-81
2021/06/08 05:57:08;;;;;;;1.10;1.00;;;;;;;21.02;67.67;99387.31;5101791;28;42834;-80
2021/06/08 05:59:37;;;;;;;1.20;1.10;;;;;;;21.08;67.73;99390.28;5068344;28;42889;-80
2021/06/08 06:02:05;;;;;;;1.00;1.00;;;;;;;21.18;67.72;99390.22;5051753;28;38918;-80
2021/06/08 06:04:32;;;;;;;1.77;1.67;;;;;;;21.28;67.44;99379.41;5051674;28;41544;-82
2021/06/08 06:07:01;;;;;;;1.33;1.23;;;;;;;21.37;67.47;99381.22;5067998;28;42681;-80
2021/06/08 06:09:28;;;;;;;1.33;1.23;;;;;;;21.45;67.37;99381.28;5085673;28;41982;-81
2021/06/08 06:11:57;;;;;;;0.93;0.90;;;;;;;21.49;66.96;99375.47;5087325;28;39991;-81
2021/06/08 06:14:27;;;;;;;2.60;2.00;;;;;;;21.48;66.57;99391.78;5067211;28;41766;-80
2021/06/08 06:16:55;;;;;;;2.00;1.90;;;;;;;21.53;66.74;99381.38;5067524;28;42736;-80
2021/06/08 06:19:23;;;;;;;1.67;1.57;;;;;;;21.61;66.66;99389.56;5059798;28;42734;-82
2021/06/08 06:21:52;;;;;;;1.37;1.30;;;;;;;21.59;65.86;99382.63;5067899;28;39207;-79
2021/06/08 06:24:21;;;;;;;1.43;1.33;;;;;;;21.62;65.90;99388.56;5068415;28;41746;-81
2021/06/08 06:26:48;;;;;;;2.10;2.00;;;;;;;21.56;65.88;99367.59;5071563;28;42435;-80
2021/06/08 06:29:16;;;;;;;1.67;1.57;;;;;;;21.72;65.55;99383.94;5083359;28;41702;-79
2021/06/08 06:31:44;;;;;;;1.97;1.87;;;;;;;;;;5072640;28;40553;-82
2021/06/08 06:34:11;;;;;;;2.03;1.93;;;;;;;;;;5071302;28;41516;-79
2021/06/08 06:36:39;;;;;;;0.97;0.93;;;;;;;21.92;65.51;99389.16;5071655;28;42635;-79
2021/06/08 06:39:10;;;;;;;2.07;1.87;;;;;;;21.95;65.03;99388.88;5072512;28;42659;-87
2021/06/08 06:41:42;;;;;;;1.60;1.53;;;;;;;22.00;64.92;99390.13;5072181;28;39876;-80
2021/06/08 06:44:12;;;;;;;1.73;1.63;;;;;;;22.02;65.39;99374.63;5053944;28;41768;-82
2021/06/08 06:46:40;;;;;;;1.57;1.47;;;;;;;22.18;65.11;99382.84;5071874;28;41954;-80
2021/06/08 06:49:07;;;;;;;1.20;1.20;;;;;;;22.29;64.90;99387.16;5053250;28;41373;-80
2021/06/08 06:51:36;;;;;;;5.83;3.67;;;;;;;22.28;64.56;99365.72;5070733;28;39688;-81
2021/06/08 06:54:04;;;;;;;2.70;2.50;;;;;;;22.46;63.90;99388.97;5051835;28;40738;-82
2021/06/08 06:56:31;;;;;;;3.30;2.83;;;;;;;22.46;63.83;99375.47;5071013;28;43288;-85
2021/06/08 06:59:00;;;;;;;1.63;1.53;;;;;;;22.62;63.51;99392.78;5072216;28;42190;-82
2021/06/08 07:01:28;;;;;;;1.33;1.23;;;;;;;22.73;63.38;99392.50;5072955;28;39969;-80
2021/06/08 07:03:58;;;;;;;1.73;1.63;;;;;;;22.93;63.33;99394.00;5070470;28;41820;-83
2021/06/08 07:06:27;;;;;;;2.03;1.93;;;;;;;23.00;62.52;99384.22;5070918;28;42690;-83
2021/06/08 07:08:56;;;;;;;1.93;1.83;;;;;;;23.12;61.65;99391.03;5053529;28;41623;-83
2021/06/08 07:11:25;;;;;;;1.70;1.60;;;;;;;23.20;61.94;99382.97;5087920;28;40100;-89
2021/06/08 07:13:53;;;;;;;3.50;2.80;;;;;;;23.18;61.37;99376.88;5070329;28;40737;-87
2021/06/08 07:16:23;;;;;;;2.40;2.30;;;;;;;23.18;60.93;99384.97;5054769;28;41999;-84
2021/06/08 07:18:51;;;;;;;2.37;2.17;;;;;;;23.27;60.91;99393.97;5053757;28;41976;-85
2021/06/08 07:21:22;;;;;;;2.17;2.07;;;;;;;23.30;61.24;99393.63;5087657;28;39520;-82
2021/06/08 07:23:52;;;;;;;1.67;1.57;;;;;;;23.31;61.06;99389.09;5053341;28;41599;-81
2021/06/08 07:26:19;;;;;;;2.33;2.13;;;;;;;23.33;61.44;99387.91;5070300;28;43415;-82
2021/06/08 07:28:47;;;;;;;2.13;1.90;;;;;;;23.32;61.40;99382.66;5087018;28;40863;-82
2021/06/08 07:31:23;;;;;;;2.03;1.70;;;;;;;23.38;61.12;99396.34;5053305;28;39474;-83
2021/06/08 07:33:58;;;;;;;3.20;3.00;;;;;;;23.34;61.07;99402.28;5070565;28;40986;-84
2021/06/08 07:36:34;;;;;;;2.77;2.20;;;;;;;23.33;61.38;99408.69;5053750;28;42832;-83
2021/06/08 07:39:10;;;;;;;2.87;2.10;;;;;;;23.18;61.94;99379.59;5069547;28;42650;-85
2021/06/08 07:41:42;;;;;;;2.80;1.90;;;;;;;23.32;61.50;99401.59;5070952;28;39548;-84
2021/06/08 07:44:15;;;;;;;2.37;2.00;;;;;;;23.35;61.71;99409.38;5069376;28;41682;-85
2021/06/08 07:46:43;;;;;;;1.67;1.40;;;;;;;23.33;62.05;99406.84;5054454;28;41811;-84
2021/06/08 07:49:12;;;;;;;2.37;1.87;;;;;;;23.32;61.58;99407.00;5069370;28;42354;-81
2021/06/08 07:51:41;;;;;;;3.40;3.10;;;;;;;23.28;62.04;99407.31;5070342;28;40685;-84
2021/06/08 07:54:08;;;;;;;1.93;1.83;;;;;;;23.22;61.88;99401.72;5069268;28;42472;-85
2021/06/08 07:56:37;;;;;;;2.03;1.93;;;;;;;23.20;61.93;99399.19;5054168;28;42717;-85
2021/06/08 07:59:05;;;;;;;3.50;3.30;;;;;;;23.32;62.14;99407.00;5069415;28;41142;-85
2021/06/08 08:01:33;;;;;;;2.10;2.00;;;;;;;23.35;61.66;99414.78;5087843;28;39963;-84
2021/06/08 08:04:07;;;;;;;1.97;1.87;;;;;;;23.29;61.62;99403.59;5068880;28;40788;-82
2021/06/08 08:06:36;;;;;;;2.40;2.30;;;;;;;23.40;61.52;99415.13;5070232;28;42907;-82
2021/06/08 08:09:04;;;;;;;1.90;1.80;;;;;;;23.38;61.73;99419.84;5052054;28;40907;-79
2021/06/08 08:11:32;;;;;;;2.77;2.53;;;;;;;23.41;61.33;99419.53;5053744;28;39867;-84
2021/06/08 08:14:03;;;;;;;2.07;1.90;;;;;;;23.45;61.44;99420.91;5052436;28;40726;-83
2021/06/08 08:16:31;;;;;;;2.47;2.27;;;;;;;23.45;61.91;99412.78;5053209;28;41840;-84
2021/06/08 08:18:59;;;;;;;1.53;1.43;;;;;;;23.61;62.00;99418.28;5068510;28;43012;-81
2021/06/08 08:21:26;;;;;;;1.70;1.60;;;;;;;23.64;62.00;99407.09;5071790;28;40027;-82
2021/06/08 08:23:55;;;;;;;3.17;2.97;;;;;;;23.80;61.53;99422.53;5086076;28;40870;-84
2021/06/08 08:26:23;;;;;;;2.03;1.93;;;;;;;23.82;61.40;99420.50;5069495;28;43275;-84
2021/06/08 08:28:50;;;;;;;1.80;1.70;;;;;;;23.89;61.36;99427.78;5086239;28;41378;-86
2021/06/08 08:31:19;;;;;;;2.47;2.27;;;;;;;23.97;61.28;99419.69;5070862;28;40959;-80
2021/06/08 08:33:46;;;;;;;0.97;0.97;;;;;;;24.09;61.18;99411.25;5068324;28;42443;-80
2021/06/08 08:36:16;;;;;;;3.03;2.83;;;;;;;24.14;60.89;99414.28;5051242;28;41977;-80
2021/06/08 08:38:43;;;;;;;1.93;1.70;;;;;;;24.21;60.18;99420.72;5073421;28;41319;-81
2021/06/08 08:41:11;;;;;;;1.83;1.73;;;;;;;24.21;60.64;99420.72;5066085;28;39963;-85
2021/06/08 08:43:41;;;;;;;1.63;1.40;;;;;;;24.22;60.69;99400.75;5061583;28;42218;-83
2021/06/08 08:46:08;;;;;;;1.60;1.50;;;;;;;24.37;60.72;99419.88;5070210;28;42865;-83
2021/06/08 08:48:36;;;;;;;1.97;1.87;;;;;;;24.32;60.91;99406.88;5068514;28;42315;-82
2021/06/08 08:51:03;;;;;;;1.67;1.57;;;;;;;24.25;60.69;99393.16;5068961;28;39738;-83
2021/06/08 08:53:32;;;;;;;1.30;1.20;;;;;;;24.24;60.47;99390.63;5085689;28;42306;-83
2021/06/08 08:55:59;;;;;;;2.30;2.10;;;;;;;24.42;59.95;99423.78;5070269;28;42657;-82
2021/06/08 08:58:29;;;;;;;2.23;2.03;;;;;;;24.46;60.04;99408.91;5068308;28;42402;-79
2021/06/08 09:00:57;;;;;;;4.13;3.83;;;;;;;24.53;59.93;99414.47;5068413;28;39903;-80
2021/06/08 09:03:25;;;;;;;2.77;2.53;;;;;;;24.62;59.93;99408.84;5067123;28;42138;-85
2021/06/08 09:05:55;;;;;;;2.13;2.03;;;;;;;24.70;58.87;99411.56;5051698;28;41771;-81
2021/06/08 09:08:24;;;;;;;2.07;1.80;;;;;;;24.65;58.25;99416.66;5068491;28;42275;-82
2021/06/08 09:10:54;;;;;;;3.20;2.57;;;;;;;24.73;58.65;99417.66;5057099;28;39922;-83
2021/06/08 09:13:22;;;;;;;1.87;1.60;;;;;;;24.79;59.00;99403.41;5075332;28;41726;-83
2021/06/08 09:15:51;;;;;;;2.10;1.80;;;;;;;25.02;58.65;99415.22;5069965;28;43472;-83
2021/06/08 09:18:19;;;;;;;2.40;2.20;;;;;;;25.18;58.68;99409.75;5085029;28;41758;-90
2021/06/08 09:20:46;;;;;;;2.20;2.03;;;;;;;25.31;58.08;99415.47;5068771;28;41480;-84
2021/06/08 09:23:14;;;;;;;1.80;1.70;;;;;;;25.44;57.70;99419.47;5067707;28;41618;-82
2021/06/08 09:25:46;;;;;;;1.70;1.60;;;;;;;25.50;56.63;99424.19;5068484;28;42651;-84
2021/06/08 09:28:22;;;;;;;1.80;1.70;;;;;;;25.53;56.63;99423.81;5051336;28;41232;-81
2021/06/08 09:30:55;;;;;;;3.13;2.67;;;;;;;25.64;56.32;99420.75;5085587;28;39288;-83
2021/06/08 09:33:24;;;;;;;1.67;1.57;;;;;;;25.74;56.51;99408.63;5051312;28;40649;-83
2021/06/08 09:35:53;;;;;;;1.47;1.37;;;;;;;26.01;56.17;99418.13;5051985;28;42315;-86
2021/06/08 09:38:21;;;;;;;2.33;2.13;;;;;;;26.16;55.97;99414.63;5051592;28;42164;-80
2021/06/08 09:40:49;;;;;;;1.83;1.73;;;;;;;26.25;55.57;99408.94;5068493;28;40415;-80
2021/06/08 09:43:18;;;;;;;2.53;2.33;;;;;;;26.38;55.27;99413.78;5069542;28;42022;-80
2021/06/08 09:45:47;;;;;;;1.87;1.77;;;;;;;26.45;54.32;99421.03;5069753;28;42540;-81
2021/06/08 09:48:16;;;;;;;5.30;2.07;;;;;;;26.42;54.37;99393.38;5068388;28;43037;-83
2021/06/08 09:50:45;;;;;;;1.30;1.30;;;;;;;26.57;54.36;99418.72;5051331;28;39012;-83
2021/06/08 09:53:20;;;;;;;1.73;1.63;;;;;;;26.67;54.17;99413.84;5085339;28;40767;-83
2021/06/08 09:55:52;;;;;;;2.23;2.03;;;;;;;26.75;53.95;99416.47;5069848;28;42661;-81
2021/06/08 09:58:19;;;;;;;2.13;2.03;;;;;;;26.77;52.64;99429.88;5083792;28;42116;-79
2021/06/08 10:01:05;;;;;;;2.80;2.30;;;;;;;26.87;53.10;99427.75;5068011;28;39574;-78
2021/06/08 10:03:38;;;;;;;1.87;1.63;;;;;;;27.02;52.59;99427.78;5050327;28;41030;-80
2021/06/08 10:06:10;;;;;;;3.00;2.23;;;;;;;27.06;51.27;99435.38;5067984;28;42982;-79
2021/06/08 10:08:52;;;;;;;2.10;1.90;;;;;;;27.00;51.71;99424.41;5068946;28;42688;-82
2021/06/08 10:11:23;;;;;;;4.83;2.30;;;;;;;27.14;51.64;99429.00;5051895;28;40119;-84
2021/06/08 10:13:57;;;;;;;1.70;1.60;;;;;;;27.20;51.90;99414.63;5069338;28;41733;-85
2021/06/08 10:16:30;;;;;;;1.90;1.77;;;;;;;27.42;51.71;99423.72;5068445;28;41794;-86
2021/06/08 10:19:00;;;;;;;2.13;1.93;;;;;;;27.59;51.53;99413.47;5084540;28;41262;-84
2021/06/08 10:21:46;;;;;;;1.87;1.73;;;;;;;27.81;51.06;99416.06;5086064;28;40298;-85
2021/06/08 10:24:15;;;;;;;2.07;1.87;;;;;;;27.97;51.06;99416.84;5067741;28;40894;-85
2021/06/08 10:26:49;;;;;;;2.00;1.57;;;;;;;28.12;50.35;99423.91;5069016;28;41871;-85
2021/06/08 10:29:18;;;;;;;2.17;2.07;;;;;;;28.13;49.60;99427.50;5051322;28;41367;-85
2021/06/08 10:31:45;;;;;;;1.67;1.57;;;;;;;28.16;49.49;99430.69;5051119;28;39275;-76
2021/06/08 10:34:14;;;;;;;2.27;2.07;;;;;;;28.17;49.29;99434.25;5066746;28;41591;-80
2021/06/08 10:36:43;;;;;;;2.57;2.37;;;;;;;28.09;48.83;99435.19;5067837;28;43453;-80
2021/06/08 10:39:12;;;;;;;2.27;2.07;;;;;;;28.20;50.03;99423.81;5051229;28;41286;-85
2021/06/08 10:41:42;;;;;;;1.47;1.37;;;;;;;28.29;49.89;99427.28;5051276;28;39113;-84
2021/06/08 10:44:18;;;;;;;1.37;1.27;;;;;;;28.28;49.73;99419.28;5049040;28;41002;-84
2021/06/08 10:46:51;;;;;;;1.43;1.33;;;;;;;28.38;49.67;99425.25;5102224;28;42036;-81
2021/06/08 10:49:32;;;;;;;1.93;1.80;;;;;;;28.39;50.22;99402.41;5099993;28;42668;-84
2021/06/08 10:52:04;;;;;;;2.03;1.83;;;;;;;28.50;49.33;99421.78;5067602;28;39836;-81
2021/06/08 10:54:38;;;;;;;2.03;1.87;;;;;;;28.47;49.82;99403.09;5068764;28;41779;-82
2021/06/08 10:57:11;;;;;;;1.40;1.30;;;;;;;28.57;49.91;99408.19;5066957;28;41518;-83
2021/06/08 10:59:40;;;;;;;1.93;1.83;;;;;;;28.59;49.60;99400.66;5065580;28;42225;-80
2021/06/08 11:02:08;;;;;;;1.80;1.70;;;;;;;28.68;50.03;99409.56;5067050;28;40792;-81
2021/06/08 11:04:52;;;;;;;10.40;6.17;;;;;;;28.73;49.48;99401.63;5066950;28;42362;-81
2021/06/08 11:07:52;;;;;;;2.97;2.77;;;;;;;28.79;49.99;99400.88;5066956;28;43521;-81
2021/06/08 11:10:51;;;;;;;1.63;1.53;;;;;;;28.92;50.42;99396.34;5066651;28;42038;-81
2021/06/08 11:13:42;;;;;;;1.57;1.47;;;;;;;29.17;48.88;99407.59;5086977;28;39134;-79
2021/06/08 11:16:34;;;;;;;1.47;1.37;;;;;;;29.34;49.36;99405.34;5069353;28;42206;-85
2021/06/08 11:19:02;;;;;;;1.53;1.43;;;;;;;29.34;48.84;99399.91;5054261;28;41742;-87
2021/06/08 11:21:34;;;;;;;1.70;1.60;;;;;;;29.45;49.59;99402.06;5071194;28;42032;-86
2021/06/08 11:24:01;;;;;;;1.77;1.60;;;;;;;29.45;49.21;99401.22;5070869;28;39237;-87
2021/06/08 11:26:52;;;;;;;1.93;1.83;;;;;;;29.38;48.81;99405.81;5070484;28;42119;-86
2021/06/08 11:29:43;;;;;;;1.20;1.20;;;;;;;29.31;49.56;99400.28;5053002;28;42748;-84
2021/06/08 11:32:12;;;;;;;1.93;1.80;;;;;;;29.18;50.03;99397.50;5053645;28;41407;-82
2021/06/08 11:35:22;;;;;;;2.00;1.73;;;;;;;29.02;49.46;99401.41;5049447;28;39006;-81
2021/06/08 11:38:08;;;;;;;1.80;1.70;;;;;;;28.86;50.18;99397.13;5045697;28;41461;-82
2021/06/08 11:40:54;;;;;;;1.30;1.20;;;;;;;28.71;50.96;99388.19;5087647;28;41796;-82
2021/06/08 11:43:48;;;;;;;1.83;1.60;;;;;;;28.56;50.87;99391.00;5069357;28;42279;-82
2021/06/08 11:46:16;;;;;;;1.53;1.43;;;;;;;28.38;51.49;99377.03;5071518;28;39630;-82
2021/06/08 11:48:45;;;;;;;1.73;1.63;;;;;;;28.33;50.89;99395.00;5053378;28;40687;-85